sensor_id;sensor_type;location;lat;lon;timestamp;P1;durP1;ratioP1;P2;durP2;ratioP2
20375;SDS011;10347;51.828;6.466;2022-12-22T00:00:44;7.55;;;6.13;;
20375;SDS011;10347;51.828;6.466;2022-12-22T00:03:29;5.85;;;5.35;;
20375;SDS011;10347;51.828;6.466;2022-12-22T00:06:13;8.75;;;6.60;;
20375;SDS011;10347;51.828;6.466;2022-12-22T00:08:57;6.68;;;5.45;;
20375;SDS011;10347;51.828;6.466;2022-12-22T00:11:41;6.35;;;5.72;;
20375;SDS011;10347;51.828;6.466;2022-12-22T00:14:25;6.32;;;5.70;;
20375;SDS011;10347;51.828;6.466;2022-12-22T00:17:13;6.13;;;5.63;;
20375;SDS011;10347;51.828;6.466;2022-12-22T00:23:01;5.25;;;4.80;;
20375;SDS011;10347;51.828;6.466;2022-12-22T00:25:45;6.93;;;6.28;;
20375;SDS011;10347;51.828;6.466;2022-12-22T00:28:29;6.28;;;5.63;;
20375;SDS011;10347;51.828;6.466;2022-12-22T00:31:14;5.45;;;4.97;;
20375;SDS011;10347;51.828;6.466;2022-12-22T00:33:58;7.00;;;5.53;;
20375;SDS011;10347;51.828;6.466;2022-12-22T00:36:42;5.68;;;4.93;;
20375;SDS011;10347;51.828;6.466;2022-12-22T00:39:27;7.65;;;6.53;;
20375;SDS011;10347;51.828;6.466;2022-12-22T00:42:11;6.53;;;5.47;;
20375;SDS011;10347;51.828;6.466;2022-12-22T00:44:55;6.70;;;6.10;;
20375;SDS011;10347;51.828;6.466;2022-12-22T00:47:39;5.65;;;5.25;;
20375;SDS011;10347;51.828;6.466;2022-12-22T00:50:29;5.93;;;5.30;;
20375;SDS011;10347;51.828;6.466;2022-12-22T00:53:16;6.90;;;6.07;;
20375;SDS011;10347;51.828;6.466;2022-12-22T00:56:04;6.97;;;6.35;;
20375;SDS011;10347;51.828;6.466;2022-12-22T00:58:49;7.57;;;6.80;;
20375;SDS011;10347;51.828;6.466;2022-12-22T01:01:37;7.00;;;6.40;;
20375;SDS011;10347;51.828;6.466;2022-12-22T01:04:21;7.78;;;6.97;;
20375;SDS011;10347;51.828;6.466;2022-12-22T01:07:05;7.53;;;6.82;;
20375;SDS011;10347;51.828;6.466;2022-12-22T01:09:53;7.43;;;6.72;;
20375;SDS011;10347;51.828;6.466;2022-12-22T01:12:38;10.13;;;7.60;;
20375;SDS011;10347;51.828;6.466;2022-12-22T01:15:23;7.57;;;6.47;;
20375;SDS011;10347;51.828;6.466;2022-12-22T01:18:08;6.70;;;6.03;;
20375;SDS011;10347;51.828;6.466;2022-12-22T01:20:53;7.43;;;5.68;;
20375;SDS011;10347;51.828;6.466;2022-12-22T01:23:37;8.07;;;5.72;;
20375;SDS011;10347;51.828;6.466;2022-12-22T01:26:23;6.63;;;5.97;;
20375;SDS011;10347;51.828;6.466;2022-12-22T01:29:07;6.22;;;5.65;;
20375;SDS011;10347;51.828;6.466;2022-12-22T01:31:51;7.10;;;5.78;;
20375;SDS011;10347;51.828;6.466;2022-12-22T01:34:36;5.40;;;4.90;;
20375;SDS011;10347;51.828;6.466;2022-12-22T01:37:20;5.72;;;5.13;;
20375;SDS011;10347;51.828;6.466;2022-12-22T01:40:05;5.68;;;5.15;;
20375;SDS011;10347;51.828;6.466;2022-12-22T01:42:54;5.65;;;5.15;;
20375;SDS011;10347;51.828;6.466;2022-12-22T01:45:38;5.45;;;4.93;;
20375;SDS011;10347;51.828;6.466;2022-12-22T01:48:26;7.35;;;5.80;;
20375;SDS011;10347;51.828;6.466;2022-12-22T01:51:13;6.38;;;5.05;;
20375;SDS011;10347;51.828;6.466;2022-12-22T01:54:07;5.82;;;5.32;;
20375;SDS011;10347;51.828;6.466;2022-12-22T01:56:53;7.43;;;6.18;;
20375;SDS011;10347;51.828;6.466;2022-12-22T01:59:37;6.25;;;5.65;;
20375;SDS011;10347;51.828;6.466;2022-12-22T02:02:21;6.35;;;5.70;;
20375;SDS011;10347;51.828;6.466;2022-12-22T02:05:07;6.00;;;5.50;;
20375;SDS011;10347;51.828;6.466;2022-12-22T02:17:16;6.20;;;5.68;;
20375;SDS011;10347;51.828;6.466;2022-12-22T02:20:23;6.55;;;5.70;;
20375;SDS011;10347;51.828;6.466;2022-12-22T02:29:13;6.20;;;5.60;;
20375;SDS011;10347;51.828;6.466;2022-12-22T02:32:01;9.00;;;7.45;;
20375;SDS011;10347;51.828;6.466;2022-12-22T02:34:45;7.72;;;6.93;;
20375;SDS011;10347;51.828;6.466;2022-12-22T02:37:34;8.38;;;7.47;;
20375;SDS011;10347;51.828;6.466;2022-12-22T02:40:49;8.50;;;6.95;;
20375;SDS011;10347;51.828;6.466;2022-12-22T02:44:19;10.05;;;7.45;;
20375;SDS011;10347;51.828;6.466;2022-12-22T02:47:04;7.75;;;6.60;;
20375;SDS011;10347;51.828;6.466;2022-12-22T02:49:53;7.43;;;6.63;;
20375;SDS011;10347;51.828;6.466;2022-12-22T02:52:42;8.50;;;7.40;;
20375;SDS011;10347;51.828;6.466;2022-12-22T02:55:28;8.60;;;7.60;;
20375;SDS011;10347;51.828;6.466;2022-12-22T02:58:13;8.13;;;7.22;;
20375;SDS011;10347;51.828;6.466;2022-12-22T03:00:58;9.25;;;7.22;;
20375;SDS011;10347;51.828;6.466;2022-12-22T03:03:45;8.27;;;7.47;;
20375;SDS011;10347;51.828;6.466;2022-12-22T03:06:30;7.78;;;6.95;;
20375;SDS011;10347;51.828;6.466;2022-12-22T03:09:14;8.85;;;7.47;;
20375;SDS011;10347;51.828;6.466;2022-12-22T03:11:58;10.82;;;8.27;;
20375;SDS011;10347;51.828;6.466;2022-12-22T03:14:43;8.02;;;6.97;;
20375;SDS011;10347;51.828;6.466;2022-12-22T03:17:27;7.90;;;7.07;;
20375;SDS011;10347;51.828;6.466;2022-12-22T03:20:11;9.63;;;8.23;;
20375;SDS011;10347;51.828;6.466;2022-12-22T03:22:55;8.15;;;7.35;;
20375;SDS011;10347;51.828;6.466;2022-12-22T03:25:39;9.40;;;7.85;;
20375;SDS011;10347;51.828;6.466;2022-12-22T03:28:18;9.90;;;7.60;;
20375;SDS011;10347;51.828;6.466;2022-12-22T03:30:59;10.05;;;8.27;;
20375;SDS011;10347;51.828;6.466;2022-12-22T03:33:27;8.77;;;7.70;;
20375;SDS011;10347;51.828;6.466;2022-12-22T03:35:54;10.05;;;7.82;;
20375;SDS011;10347;51.828;6.466;2022-12-22T03:38:19;9.07;;;8.15;;
20375;SDS011;10347;51.828;6.466;2022-12-22T03:40:45;9.90;;;8.15;;
20375;SDS011;10347;51.828;6.466;2022-12-22T03:43:11;8.73;;;7.57;;
20375;SDS011;10347;51.828;6.466;2022-12-22T03:45:57;9.90;;;8.27;;
20375;SDS011;10347;51.828;6.466;2022-12-22T03:48:45;9.70;;;8.13;;
20375;SDS011;10347;51.828;6.466;2022-12-22T03:51:31;9.93;;;8.65;;
20375;SDS011;10347;51.828;6.466;2022-12-22T03:53:57;9.88;;;8.52;;
20375;SDS011;10347;51.828;6.466;2022-12-22T03:56:23;10.18;;;8.30;;
20375;SDS011;10347;51.828;6.466;2022-12-22T03:58:49;10.50;;;8.60;;
20375;SDS011;10347;51.828;6.466;2022-12-22T04:01:15;10.75;;;8.48;;
20375;SDS011;10347;51.828;6.466;2022-12-22T04:03:40;9.80;;;8.02;;
20375;SDS011;10347;51.828;6.466;2022-12-22T04:06:06;11.85;;;8.73;;
20375;SDS011;10347;51.828;6.466;2022-12-22T04:08:31;9.40;;;7.93;;
20375;SDS011;10347;51.828;6.466;2022-12-22T04:10:57;9.55;;;7.78;;
20375;SDS011;10347;51.828;6.466;2022-12-22T04:13:41;9.60;;;7.75;;
20375;SDS011;10347;51.828;6.466;2022-12-22T04:16:07;9.35;;;7.88;;
20375;SDS011;10347;51.828;6.466;2022-12-22T04:18:32;8.77;;;7.63;;
20375;SDS011;10347;51.828;6.466;2022-12-22T04:20:58;9.95;;;8.20;;
20375;SDS011;10347;51.828;6.466;2022-12-22T04:23:23;11.50;;;9.10;;
20375;SDS011;10347;51.828;6.466;2022-12-22T04:25:49;10.93;;;8.25;;
20375;SDS011;10347;51.828;6.466;2022-12-22T04:28:15;11.20;;;8.63;;
20375;SDS011;10347;51.828;6.466;2022-12-22T04:30:41;12.35;;;8.65;;
20375;SDS011;10347;51.828;6.466;2022-12-22T04:33:06;10.35;;;8.25;;
20375;SDS011;10347;51.828;6.466;2022-12-22T04:35:32;14.13;;;9.95;;
20375;SDS011;10347;51.828;6.466;2022-12-22T04:37:57;10.85;;;8.68;;
20375;SDS011;10347;51.828;6.466;2022-12-22T04:40:23;12.43;;;9.45;;
20375;SDS011;10347;51.828;6.466;2022-12-22T04:42:48;13.48;;;9.82;;
20375;SDS011;10347;51.828;6.466;2022-12-22T04:45:14;13.32;;;9.35;;
20375;SDS011;10347;51.828;6.466;2022-12-22T04:47:40;11.68;;;9.15;;
20375;SDS011;10347;51.828;6.466;2022-12-22T04:50:05;12.18;;;9.75;;
20375;SDS011;10347;51.828;6.466;2022-12-22T04:52:31;13.77;;;10.65;;
20375;SDS011;10347;51.828;6.466;2022-12-22T04:54:57;13.10;;;10.15;;
20375;SDS011;10347;51.828;6.466;2022-12-22T04:57:22;13.32;;;9.70;;
20375;SDS011;10347;51.828;6.466;2022-12-22T04:59:48;13.25;;;9.77;;
20375;SDS011;10347;51.828;6.466;2022-12-22T05:02:13;14.20;;;10.35;;
20375;SDS011;10347;51.828;6.466;2022-12-22T05:04:39;11.88;;;9.70;;
20375;SDS011;10347;51.828;6.466;2022-12-22T05:07:04;12.65;;;10.15;;
20375;SDS011;10347;51.828;6.466;2022-12-22T05:09:31;14.02;;;9.98;;
20375;SDS011;10347;51.828;6.466;2022-12-22T05:11:57;14.88;;;10.38;;
20375;SDS011;10347;51.828;6.466;2022-12-22T05:14:23;14.02;;;10.85;;
20375;SDS011;10347;51.828;6.466;2022-12-22T05:16:49;13.10;;;10.40;;
20375;SDS011;10347;51.828;6.466;2022-12-22T05:19:14;14.48;;;10.70;;
20375;SDS011;10347;51.828;6.466;2022-12-22T05:21:40;13.35;;;10.00;;
20375;SDS011;10347;51.828;6.466;2022-12-22T05:24:06;13.25;;;10.10;;
20375;SDS011;10347;51.828;6.466;2022-12-22T05:26:31;12.93;;;9.90;;
20375;SDS011;10347;51.828;6.466;2022-12-22T05:28:57;12.10;;;9.38;;
20375;SDS011;10347;51.828;6.466;2022-12-22T05:31:23;14.38;;;10.23;;
20375;SDS011;10347;51.828;6.466;2022-12-22T05:33:50;12.82;;;9.68;;
20375;SDS011;10347;51.828;6.466;2022-12-22T05:36:15;13.93;;;10.57;;
20375;SDS011;10347;51.828;6.466;2022-12-22T05:38:41;13.30;;;9.85;;
20375;SDS011;10347;51.828;6.466;2022-12-22T05:41:08;12.40;;;9.52;;
20375;SDS011;10347;51.828;6.466;2022-12-22T05:43:34;12.20;;;9.70;;
20375;SDS011;10347;51.828;6.466;2022-12-22T05:46:02;12.82;;;9.80;;
20375;SDS011;10347;51.828;6.466;2022-12-22T05:48:29;13.60;;;10.10;;
20375;SDS011;10347;51.828;6.466;2022-12-22T05:50:55;13.45;;;10.07;;
20375;SDS011;10347;51.828;6.466;2022-12-22T05:53:20;11.52;;;8.95;;
20375;SDS011;10347;51.828;6.466;2022-12-22T05:55:46;14.15;;;10.07;;
20375;SDS011;10347;51.828;6.466;2022-12-22T05:58:12;13.63;;;10.15;;
20375;SDS011;10347;51.828;6.466;2022-12-22T06:00:37;14.85;;;10.07;;
20375;SDS011;10347;51.828;6.466;2022-12-22T06:03:03;12.60;;;9.27;;
20375;SDS011;10347;51.828;6.466;2022-12-22T06:05:28;13.95;;;10.15;;
20375;SDS011;10347;51.828;6.466;2022-12-22T06:07:54;12.43;;;9.50;;
20375;SDS011;10347;51.828;6.466;2022-12-22T06:10:19;13.18;;;9.80;;
20375;SDS011;10347;51.828;6.466;2022-12-22T06:12:45;12.60;;;9.18;;
20375;SDS011;10347;51.828;6.466;2022-12-22T06:15:12;12.95;;;9.70;;
20375;SDS011;10347;51.828;6.466;2022-12-22T06:17:38;13.65;;;10.40;;
20375;SDS011;10347;51.828;6.466;2022-12-22T06:20:04;15.38;;;10.23;;
20375;SDS011;10347;51.828;6.466;2022-12-22T06:22:31;12.90;;;9.85;;
20375;SDS011;10347;51.828;6.466;2022-12-22T06:24:57;12.80;;;9.77;;
20375;SDS011;10347;51.828;6.466;2022-12-22T06:27:23;16.92;;;11.00;;
20375;SDS011;10347;51.828;6.466;2022-12-22T06:29:49;15.20;;;10.82;;
20375;SDS011;10347;51.828;6.466;2022-12-22T06:32:14;14.77;;;10.55;;
20375;SDS011;10347;51.828;6.466;2022-12-22T06:34:40;13.25;;;9.85;;
20375;SDS011;10347;51.828;6.466;2022-12-22T06:37:05;13.60;;;9.70;;
20375;SDS011;10347;51.828;6.466;2022-12-22T06:39:31;14.45;;;9.45;;
20375;SDS011;10347;51.828;6.466;2022-12-22T06:41:56;15.00;;;10.40;;
20375;SDS011;10347;51.828;6.466;2022-12-22T06:44:41;14.05;;;9.52;;
20375;SDS011;10347;51.828;6.466;2022-12-22T06:47:06;15.07;;;9.50;;
20375;SDS011;10347;51.828;6.466;2022-12-22T06:49:32;14.23;;;9.25;;
20375;SDS011;10347;51.828;6.466;2022-12-22T06:51:58;13.05;;;9.55;;
20375;SDS011;10347;51.828;6.466;2022-12-22T06:54:23;13.35;;;9.60;;
20375;SDS011;10347;51.828;6.466;2022-12-22T06:56:49;12.77;;;9.30;;
20375;SDS011;10347;51.828;6.466;2022-12-22T06:59:14;13.90;;;9.35;;
20375;SDS011;10347;51.828;6.466;2022-12-22T07:01:40;17.67;;;10.13;;
20375;SDS011;10347;51.828;6.466;2022-12-22T07:04:06;12.48;;;9.00;;
20375;SDS011;10347;51.828;6.466;2022-12-22T07:06:33;17.65;;;10.73;;
20375;SDS011;10347;51.828;6.466;2022-12-22T07:08:59;16.58;;;11.18;;
20375;SDS011;10347;51.828;6.466;2022-12-22T07:11:25;13.10;;;9.63;;
20375;SDS011;10347;51.828;6.466;2022-12-22T07:13:50;17.15;;;10.57;;
20375;SDS011;10347;51.828;6.466;2022-12-22T07:16:16;16.70;;;10.80;;
20375;SDS011;10347;51.828;6.466;2022-12-22T07:18:42;16.48;;;10.93;;
20375;SDS011;10347;51.828;6.466;2022-12-22T07:21:09;14.73;;;10.43;;
20375;SDS011;10347;51.828;6.466;2022-12-22T07:23:36;17.23;;;11.55;;
20375;SDS011;10347;51.828;6.466;2022-12-22T07:26:03;16.08;;;11.57;;
20375;SDS011;10347;51.828;6.466;2022-12-22T07:28:31;16.13;;;11.38;;
20375;SDS011;10347;51.828;6.466;2022-12-22T07:31:01;15.38;;;11.05;;
20375;SDS011;10347;51.828;6.466;2022-12-22T07:33:27;15.30;;;11.30;;
20375;SDS011;10347;51.828;6.466;2022-12-22T07:38:34;17.15;;;11.35;;
20375;SDS011;10347;51.828;6.466;2022-12-22T07:41:01;13.18;;;10.32;;
20375;SDS011;10347;51.828;6.466;2022-12-22T07:43:27;15.57;;;10.32;;
20375;SDS011;10347;51.828;6.466;2022-12-22T07:45:53;13.32;;;10.15;;
20375;SDS011;10347;51.828;6.466;2022-12-22T07:48:19;12.63;;;9.77;;
20375;SDS011;10347;51.828;6.466;2022-12-22T07:51:04;14.13;;;10.35;;
20375;SDS011;10347;51.828;6.466;2022-12-22T07:53:31;13.10;;;10.02;;
20375;SDS011;10347;51.828;6.466;2022-12-22T07:56:00;19.00;;;11.77;;
20375;SDS011;10347;51.828;6.466;2022-12-22T07:58:27;12.85;;;9.55;;
20375;SDS011;10347;51.828;6.466;2022-12-22T08:00:56;14.32;;;10.32;;
20375;SDS011;10347;51.828;6.466;2022-12-22T08:03:22;12.77;;;9.40;;
20375;SDS011;10347;51.828;6.466;2022-12-22T08:05:48;17.75;;;11.27;;
20375;SDS011;10347;51.828;6.466;2022-12-22T08:08:13;14.45;;;10.48;;
20375;SDS011;10347;51.828;6.466;2022-12-22T08:10:39;13.27;;;10.20;;
20375;SDS011;10347;51.828;6.466;2022-12-22T08:13:04;11.80;;;9.25;;
20375;SDS011;10347;51.828;6.466;2022-12-22T08:15:30;13.18;;;9.25;;
20375;SDS011;10347;51.828;6.466;2022-12-22T08:17:55;13.18;;;9.38;;
20375;SDS011;10347;51.828;6.466;2022-12-22T08:20:21;15.50;;;10.25;;
20375;SDS011;10347;51.828;6.466;2022-12-22T08:22:46;16.02;;;10.95;;
20375;SDS011;10347;51.828;6.466;2022-12-22T08:25:12;15.07;;;10.85;;
20375;SDS011;10347;51.828;6.466;2022-12-22T08:27:40;16.27;;;11.02;;
20375;SDS011;10347;51.828;6.466;2022-12-22T08:30:12;19.67;;;12.05;;
20375;SDS011;10347;51.828;6.466;2022-12-22T08:32:38;20.88;;;12.88;;
20375;SDS011;10347;51.828;6.466;2022-12-22T08:35:04;22.17;;;13.20;;
20375;SDS011;10347;51.828;6.466;2022-12-22T08:37:31;20.35;;;12.32;;
20375;SDS011;10347;51.828;6.466;2022-12-22T08:40:05;20.58;;;12.85;;
20375;SDS011;10347;51.828;6.466;2022-12-22T08:42:34;17.35;;;11.95;;
20375;SDS011;10347;51.828;6.466;2022-12-22T08:44:59;20.02;;;12.07;;
20375;SDS011;10347;51.828;6.466;2022-12-22T08:47:25;18.10;;;11.90;;
20375;SDS011;10347;51.828;6.466;2022-12-22T08:49:51;23.40;;;13.70;;
20375;SDS011;10347;51.828;6.466;2022-12-22T08:52:16;20.10;;;13.77;;
20375;SDS011;10347;51.828;6.466;2022-12-22T08:54:42;23.05;;;13.77;;
20375;SDS011;10347;51.828;6.466;2022-12-22T08:57:08;21.85;;;13.35;;
20375;SDS011;10347;51.828;6.466;2022-12-22T08:59:33;21.30;;;13.27;;
20375;SDS011;10347;51.828;6.466;2022-12-22T09:01:59;19.30;;;12.23;;
20375;SDS011;10347;51.828;6.466;2022-12-22T09:04:29;21.27;;;13.95;;
20375;SDS011;10347;51.828;6.466;2022-12-22T09:06:58;20.85;;;13.88;;
20375;SDS011;10347;51.828;6.466;2022-12-22T09:09:26;22.63;;;12.95;;
20375;SDS011;10347;51.828;6.466;2022-12-22T09:11:54;20.42;;;13.55;;
20375;SDS011;10347;51.828;6.466;2022-12-22T09:14:20;19.65;;;12.27;;
20375;SDS011;10347;51.828;6.466;2022-12-22T09:16:45;19.02;;;12.20;;
20375;SDS011;10347;51.828;6.466;2022-12-22T09:19:11;16.00;;;10.80;;
20375;SDS011;10347;51.828;6.466;2022-12-22T09:21:36;15.52;;;11.40;;
20375;SDS011;10347;51.828;6.466;2022-12-22T09:24:02;16.88;;;11.23;;
20375;SDS011;10347;51.828;6.466;2022-12-22T09:26:34;14.48;;;10.48;;
20375;SDS011;10347;51.828;6.466;2022-12-22T09:28:59;16.80;;;11.00;;
20375;SDS011;10347;51.828;6.466;2022-12-22T09:31:25;17.08;;;11.50;;
20375;SDS011;10347;51.828;6.466;2022-12-22T09:33:51;15.75;;;10.65;;
20375;SDS011;10347;51.828;6.466;2022-12-22T09:36:18;15.05;;;10.45;;
20375;SDS011;10347;51.828;6.466;2022-12-22T09:38:45;17.25;;;11.13;;
20375;SDS011;10347;51.828;6.466;2022-12-22T09:46:50;17.63;;;11.02;;
20375;SDS011;10347;51.828;6.466;2022-12-22T09:49:18;20.13;;;12.30;;
20375;SDS011;10347;51.828;6.466;2022-12-22T09:51:48;17.35;;;11.57;;
20375;SDS011;10347;51.828;6.466;2022-12-22T09:54:18;18.90;;;12.65;;
20375;SDS011;10347;51.828;6.466;2022-12-22T09:56:45;20.23;;;13.10;;
20375;SDS011;10347;51.828;6.466;2022-12-22T09:59:12;22.98;;;14.60;;
20375;SDS011;10347;51.828;6.466;2022-12-22T10:07:30;23.23;;;14.75;;
20375;SDS011;10347;51.828;6.466;2022-12-22T10:10:04;23.08;;;14.77;;
20375;SDS011;10347;51.828;6.466;2022-12-22T10:12:30;26.33;;;15.57;;
20375;SDS011;10347;51.828;6.466;2022-12-22T10:14:56;24.40;;;14.30;;
20375;SDS011;10347;51.828;6.466;2022-12-22T10:17:25;24.13;;;14.15;;
20375;SDS011;10347;51.828;6.466;2022-12-22T10:22:59;24.80;;;14.88;;
20375;SDS011;10347;51.828;6.466;2022-12-22T10:25:32;26.13;;;15.00;;
20375;SDS011;10347;51.828;6.466;2022-12-22T10:28:03;23.95;;;14.27;;
20375;SDS011;10347;51.828;6.466;2022-12-22T10:30:36;22.10;;;13.82;;
20375;SDS011;10347;51.828;6.466;2022-12-22T10:35:42;24.65;;;14.27;;
20375;SDS011;10347;51.828;6.466;2022-12-22T10:41:02;28.98;;;15.85;;
20375;SDS011;10347;51.828;6.466;2022-12-22T10:43:38;27.95;;;15.15;;
20375;SDS011;10347;51.828;6.466;2022-12-22T10:46:33;30.20;;;16.02;;
20375;SDS011;10347;51.828;6.466;2022-12-22T10:49:13;25.98;;;15.05;;
20375;SDS011;10347;51.828;6.466;2022-12-22T10:51:39;28.42;;;15.02;;
20375;SDS011;10347;51.828;6.466;2022-12-22T10:54:08;25.65;;;14.20;;
20375;SDS011;10347;51.828;6.466;2022-12-22T10:56:47;29.05;;;14.52;;
20375;SDS011;10347;51.828;6.466;2022-12-22T10:59:26;25.95;;;13.57;;
20375;SDS011;10347;51.828;6.466;2022-12-22T11:01:52;25.10;;;13.40;;
20375;SDS011;10347;51.828;6.466;2022-12-22T11:06:51;25.88;;;13.32;;
20375;SDS011;10347;51.828;6.466;2022-12-22T11:09:18;23.02;;;12.68;;
20375;SDS011;10347;51.828;6.466;2022-12-22T11:11:45;26.33;;;13.60;;
20375;SDS011;10347;51.828;6.466;2022-12-22T11:28:31;21.95;;;11.90;;
20375;SDS011;10347;51.828;6.466;2022-12-22T11:37:01;21.38;;;11.10;;
20375;SDS011;10347;51.828;6.466;2022-12-22T11:39:53;19.15;;;10.07;;
20375;SDS011;10347;51.828;6.466;2022-12-22T11:50:47;19.77;;;8.75;;
20375;SDS011;10347;51.828;6.466;2022-12-22T11:56:01;16.10;;;7.97;;
20375;SDS011;10347;51.828;6.466;2022-12-22T12:09:59;17.40;;;9.75;;
20375;SDS011;10347;51.828;6.466;2022-12-22T12:12:47;20.08;;;8.95;;
20375;SDS011;10347;51.828;6.466;2022-12-22T12:18:06;16.55;;;9.07;;
20375;SDS011;10347;51.828;6.466;2022-12-22T12:20:55;15.55;;;9.05;;
20375;SDS011;10347;51.828;6.466;2022-12-22T12:26:51;18.50;;;8.73;;
20375;SDS011;10347;51.828;6.466;2022-12-22T12:34:34;22.58;;;11.32;;
20375;SDS011;10347;51.828;6.466;2022-12-22T12:37:07;18.15;;;10.20;;
20375;SDS011;10347;51.828;6.466;2022-12-22T12:43:05;24.10;;;12.00;;
20375;SDS011;10347;51.828;6.466;2022-12-22T12:53:16;19.63;;;10.57;;
20375;SDS011;10347;51.828;6.466;2022-12-22T12:58:31;31.10;;;15.70;;
20375;SDS011;10347;51.828;6.466;2022-12-22T13:03:52;25.63;;;15.38;;
20375;SDS011;10347;51.828;6.466;2022-12-22T13:09:10;26.17;;;15.48;;
20375;SDS011;10347;51.828;6.466;2022-12-22T13:11:41;23.45;;;14.77;;
20375;SDS011;10347;51.828;6.466;2022-12-22T13:14:06;26.25;;;15.32;;
20375;SDS011;10347;51.828;6.466;2022-12-22T13:16:33;22.55;;;13.23;;
20375;SDS011;10347;51.828;6.466;2022-12-22T13:19:02;18.33;;;13.10;;
20375;SDS011;10347;51.828;6.466;2022-12-22T13:21:37;20.17;;;13.05;;
20375;SDS011;10347;51.828;6.466;2022-12-22T13:26:38;22.33;;;13.25;;
20375;SDS011;10347;51.828;6.466;2022-12-22T13:29:13;19.75;;;11.63;;
20375;SDS011;10347;51.828;6.466;2022-12-22T13:31:42;22.08;;;12.48;;
20375;SDS011;10347;51.828;6.466;2022-12-22T13:37:22;23.05;;;11.85;;
20375;SDS011;10347;51.828;6.466;2022-12-22T13:42:39;21.55;;;11.38;;
20375;SDS011;10347;51.828;6.466;2022-12-22T13:45:25;19.42;;;10.63;;
20375;SDS011;10347;51.828;6.466;2022-12-22T13:47:52;18.63;;;11.75;;
20375;SDS011;10347;51.828;6.466;2022-12-22T13:50:19;19.42;;;10.70;;
20375;SDS011;10347;51.828;6.466;2022-12-22T13:52:48;16.85;;;10.02;;
20375;SDS011;10347;51.828;6.466;2022-12-22T13:55:17;16.38;;;10.00;;
20375;SDS011;10347;51.828;6.466;2022-12-22T13:57:45;20.67;;;10.52;;
20375;SDS011;10347;51.828;6.466;2022-12-22T14:00:18;12.30;;;9.18;;
20375;SDS011;10347;51.828;6.466;2022-12-22T14:02:48;17.77;;;10.13;;
20375;SDS011;10347;51.828;6.466;2022-12-22T14:05:15;14.77;;;9.25;;
20375;SDS011;10347;51.828;6.466;2022-12-22T14:07:57;15.27;;;9.32;;
20375;SDS011;10347;51.828;6.466;2022-12-22T14:10:32;15.52;;;9.23;;
20375;SDS011;10347;51.828;6.466;2022-12-22T14:13:00;13.88;;;9.13;;
20375;SDS011;10347;51.828;6.466;2022-12-22T14:15:30;11.68;;;8.65;;
20375;SDS011;10347;51.828;6.466;2022-12-22T14:17:56;24.08;;;12.32;;
20375;SDS011;10347;51.828;6.466;2022-12-22T14:20:34;20.40;;;12.50;;
20375;SDS011;10347;51.828;6.466;2022-12-22T14:23:04;18.23;;;11.43;;
20375;SDS011;10347;51.828;6.466;2022-12-22T14:25:36;22.40;;;13.15;;
20375;SDS011;10347;51.828;6.466;2022-12-22T14:28:04;18.67;;;11.73;;
20375;SDS011;10347;51.828;6.466;2022-12-22T14:30:36;18.77;;;11.18;;
20375;SDS011;10347;51.828;6.466;2022-12-22T14:35:39;19.58;;;11.65;;
20375;SDS011;10347;51.828;6.466;2022-12-22T14:40:48;20.02;;;12.95;;
20375;SDS011;10347;51.828;6.466;2022-12-22T14:45:40;18.88;;;11.75;;
20375;SDS011;10347;51.828;6.466;2022-12-22T14:48:07;17.35;;;11.32;;
20375;SDS011;10347;51.828;6.466;2022-12-22T14:50:34;18.42;;;12.43;;
20375;SDS011;10347;51.828;6.466;2022-12-22T14:53:01;17.70;;;11.60;;
20375;SDS011;10347;51.828;6.466;2022-12-22T14:55:30;15.18;;;10.15;;
20375;SDS011;10347;51.828;6.466;2022-12-22T15:03:03;14.85;;;10.00;;
20375;SDS011;10347;51.828;6.466;2022-12-22T15:05:34;14.20;;;10.13;;
20375;SDS011;10347;51.828;6.466;2022-12-22T15:08:03;11.85;;;9.23;;
20375;SDS011;10347;51.828;6.466;2022-12-22T15:10:36;11.50;;;8.65;;
20375;SDS011;10347;51.828;6.466;2022-12-22T15:13:04;15.02;;;10.07;;
20375;SDS011;10347;51.828;6.466;2022-12-22T15:15:32;13.50;;;9.02;;
20375;SDS011;10347;51.828;6.466;2022-12-22T15:17:58;12.55;;;8.82;;
20375;SDS011;10347;51.828;6.466;2022-12-22T15:20:24;14.40;;;9.80;;
20375;SDS011;10347;51.828;6.466;2022-12-22T15:22:52;12.13;;;8.43;;
20375;SDS011;10347;51.828;6.466;2022-12-22T15:25:19;13.38;;;9.30;;
20375;SDS011;10347;51.828;6.466;2022-12-22T15:27:46;12.45;;;8.38;;
20375;SDS011;10347;51.828;6.466;2022-12-22T15:30:14;12.38;;;8.05;;
20375;SDS011;10347;51.828;6.466;2022-12-22T15:32:43;12.98;;;8.65;;
20375;SDS011;10347;51.828;6.466;2022-12-22T15:35:19;12.60;;;7.63;;
20375;SDS011;10347;51.828;6.466;2022-12-22T15:37:49;11.43;;;8.48;;
20375;SDS011;10347;51.828;6.466;2022-12-22T15:40:22;10.10;;;7.78;;
20375;SDS011;10347;51.828;6.466;2022-12-22T15:42:48;10.52;;;7.65;;
20375;SDS011;10347;51.828;6.466;2022-12-22T15:45:15;10.63;;;7.80;;
20375;SDS011;10347;51.828;6.466;2022-12-22T15:47:42;11.98;;;8.82;;
20375;SDS011;10347;51.828;6.466;2022-12-22T15:50:13;12.38;;;8.20;;
20375;SDS011;10347;51.828;6.466;2022-12-22T15:52:42;13.20;;;8.98;;
20375;SDS011;10347;51.828;6.466;2022-12-22T15:55:16;12.00;;;8.60;;
20375;SDS011;10347;51.828;6.466;2022-12-22T15:57:43;13.85;;;9.68;;
20375;SDS011;10347;51.828;6.466;2022-12-22T16:00:11;14.70;;;9.93;;
20375;SDS011;10347;51.828;6.466;2022-12-22T16:02:37;17.02;;;11.82;;
20375;SDS011;10347;51.828;6.466;2022-12-22T16:05:03;14.98;;;10.07;;
20375;SDS011;10347;51.828;6.466;2022-12-22T16:07:30;16.23;;;10.02;;
20375;SDS011;10347;51.828;6.466;2022-12-22T16:09:55;14.85;;;10.18;;
20375;SDS011;10347;51.828;6.466;2022-12-22T16:12:22;13.13;;;9.65;;
20375;SDS011;10347;51.828;6.466;2022-12-22T16:14:49;14.65;;;10.38;;
20375;SDS011;10347;51.828;6.466;2022-12-22T16:17:20;14.30;;;9.93;;
20375;SDS011;10347;51.828;6.466;2022-12-22T16:19:48;16.77;;;10.98;;
20375;SDS011;10347;51.828;6.466;2022-12-22T16:22:16;19.70;;;11.50;;
20375;SDS011;10347;51.828;6.466;2022-12-22T16:24:45;15.98;;;10.52;;
20375;SDS011;10347;51.828;6.466;2022-12-22T16:27:13;14.70;;;10.50;;
20375;SDS011;10347;51.828;6.466;2022-12-22T16:29:39;15.65;;;10.65;;
20375;SDS011;10347;51.828;6.466;2022-12-22T16:32:42;19.00;;;11.70;;
20375;SDS011;10347;51.828;6.466;2022-12-22T16:37:35;18.08;;;11.40;;
20375;SDS011;10347;51.828;6.466;2022-12-22T16:40:01;15.07;;;10.48;;
20375;SDS011;10347;51.828;6.466;2022-12-22T16:42:28;17.48;;;10.80;;
20375;SDS011;10347;51.828;6.466;2022-12-22T16:44:54;16.27;;;10.68;;
20375;SDS011;10347;51.828;6.466;2022-12-22T16:47:21;17.30;;;11.02;;
20375;SDS011;10347;51.828;6.466;2022-12-22T16:49:49;15.85;;;10.68;;
20375;SDS011;10347;51.828;6.466;2022-12-22T16:52:23;14.73;;;9.23;;
20375;SDS011;10347;51.828;6.466;2022-12-22T16:55:00;13.02;;;9.38;;
20375;SDS011;10347;51.828;6.466;2022-12-22T16:57:26;14.75;;;10.02;;
20375;SDS011;10347;51.828;6.466;2022-12-22T16:59:51;13.18;;;9.18;;
20375;SDS011;10347;51.828;6.466;2022-12-22T17:04:47;13.52;;;9.65;;
20375;SDS011;10347;51.828;6.466;2022-12-22T17:07:15;16.17;;;10.43;;
20375;SDS011;10347;51.828;6.466;2022-12-22T17:09:45;14.25;;;9.05;;
20375;SDS011;10347;51.828;6.466;2022-12-22T17:12:17;15.95;;;10.20;;
20375;SDS011;10347;51.828;6.466;2022-12-22T17:14:45;12.95;;;9.07;;
20375;SDS011;10347;51.828;6.466;2022-12-22T17:17:18;15.80;;;10.40;;
20375;SDS011;10347;51.828;6.466;2022-12-22T17:19:49;12.27;;;8.25;;
20375;SDS011;10347;51.828;6.466;2022-12-22T17:22:19;13.50;;;9.38;;